Sturgeon Falls, Canada
Current Conditions -  °F | °C
As of 3:00 AM on Tuesday 21 Oct 2014 (Local Time) from CYYB Reporting Station
Light Rain Light Rain  
Wind Chill: 30°   Ceiling: 800
Heat Index: 37°   Visibility: 9mi
Dew Point: 36°   Wind: 12mph
Humidity: 93%   Direction: 30°NNE
Pressure: 29.87"   Gusts: 21mph
Location:  46.37°N, 79.93°W
Report Text: CYYB 210700Z AUTO 03010G18KT 9SM -RA BKN008 BKN044 OVC055 03/02 A2987 RMK SLP129
Loading
Personal Weather Stations






























Interactive Weather Map New forecast layout! Learn more

10-Day Weather Forecast

Advertisements
Track Severe Weather on mobile